createdAt,value
2019-05-02T00:01:21.403Z,30.23
2019-05-02T00:03:51.009Z,30.50
2019-05-02T00:06:20.592Z,31.00
2019-05-02T00:08:50.288Z,31.17
2019-05-02T00:11:20.450Z,30.65
2019-05-02T00:13:50.339Z,31.85
2019-05-02T00:16:19.854Z,31.40
2019-05-02T00:18:49.455Z,31.30
2019-05-02T00:21:19.181Z,29.98
2019-05-02T00:23:48.693Z,29.52
2019-05-02T00:26:18.203Z,30.60
2019-05-02T00:28:49.727Z,30.40
2019-05-02T00:31:21.725Z,30.15
2019-05-02T00:33:51.245Z,30.77
2019-05-02T00:36:20.763Z,29.27
2019-05-02T00:38:50.385Z,30.17
2019-05-02T00:41:19.868Z,30.48
2019-05-02T00:43:49.394Z,30.15
2019-05-02T00:46:18.989Z,29.65
2019-05-02T00:48:59.514Z,30.92
2019-05-02T00:51:26.830Z,31.50
2019-05-02T00:53:56.626Z,30.97
2019-05-02T00:56:26.146Z,30.72
2019-05-02T00:58:55.673Z,32.90
2019-05-02T01:01:43.146Z,30.93
2019-05-02T01:04:29.217Z,31.10
2019-05-02T01:06:58.784Z,30.43
2019-05-02T01:09:28.641Z,31.77
2019-05-02T01:11:58.163Z,31.73
2019-05-02T01:14:31.766Z,32.48
2019-05-02T01:16:58.926Z,30.90
2019-05-02T01:19:28.463Z,31.10
2019-05-02T01:21:58.945Z,30.43
2019-05-02T01:24:28.507Z,29.70
2019-05-02T01:27:10.218Z,30.62
2019-05-02T01:29:44.496Z,30.17
2019-05-02T01:32:33.049Z,29.42
2019-05-02T01:35:07.784Z,30.05
2019-05-02T01:37:56.353Z,30.82
2019-05-02T01:40:25.882Z,29.50
2019-05-02T01:42:57.607Z,30.92
2019-05-02T01:45:27.134Z,29.98
2019-05-02T01:47:56.665Z,29.27
2019-05-02T01:50:28.887Z,28.62
2019-05-02T01:52:58.673Z,28.70
2019-05-02T01:55:28.633Z,29.30
2019-05-02T01:57:58.153Z,28.83
2019-05-02T02:00:28.267Z,29.25
2019-05-02T02:02:58.619Z,29.05
2019-05-02T02:05:32.284Z,28.25
2019-05-02T02:07:59.354Z,27.37
2019-05-02T02:10:28.886Z,27.32
2019-05-02T02:13:04.927Z,27.60
2019-05-02T02:15:30.280Z,26.52
2019-05-02T02:17:59.756Z,26.68
2019-05-02T02:20:34.051Z,26.37
2019-05-02T02:23:19.830Z,26.15
2019-05-02T02:25:52.993Z,26.02
2019-05-02T02:28:22.505Z,28.10
2019-05-02T02:30:57.878Z,29.35
2019-05-02T02:33:23.247Z,28.73
2019-05-02T02:35:52.875Z,27.25
2019-05-02T02:38:26.845Z,28.60
2019-05-02T02:40:54.729Z,28.20
2019-05-02T02:43:34.040Z,28.35
2019-05-02T02:46:06.268Z,27.60
2019-05-02T02:48:40.738Z,28.62
2019-05-02T02:51:07.307Z,27.82
2019-05-02T02:53:36.823Z,27.27
2019-05-02T02:56:07.897Z,26.60
2019-05-02T02:58:45.173Z,26.75
2019-05-02T03:01:08.712Z,27.60
2019-05-02T03:03:38.229Z,27.58
2019-05-02T03:06:08.520Z,27.32
2019-05-02T03:08:46.068Z,25.97
2019-05-02T03:11:10.988Z,26.60
2019-05-02T03:13:53.095Z,26.87
2019-05-02T03:16:23.350Z,27.42
2019-05-02T03:18:52.939Z,27.60
2019-05-02T03:21:22.788Z,26.50
2019-05-02T03:24:02.282Z,28.17
2019-05-02T03:26:23.608Z,27.25
2019-05-02T03:28:58.693Z,26.00
2019-05-02T03:31:29.812Z,27.57
2019-05-02T03:34:00.802Z,28.00
2019-05-02T03:36:30.176Z,25.88
2019-05-02T03:38:58.181Z,27.73
2019-05-02T03:41:27.742Z,27.70
2019-05-02T03:44:10.879Z,27.62
2019-05-02T03:46:29.482Z,28.50
2019-05-02T03:49:07.611Z,28.50
2019-05-02T03:51:30.350Z,28.17
2019-05-02T03:54:07.766Z,28.12
2019-05-02T03:56:32.186Z,29.10
2019-05-02T03:59:01.721Z,28.50
2019-05-02T04:01:34.568Z,28.20
2019-05-02T04:04:03.634Z,27.75
2019-05-02T04:06:33.182Z,28.50
2019-05-02T04:09:02.723Z,28.80
2019-05-02T04:11:38.762Z,28.30
2019-05-02T04:14:15.212Z,28.93
2019-05-02T04:16:35.239Z,27.40
2019-05-02T04:19:07.851Z,27.83
2019-05-02T04:21:37.557Z,28.87
2019-05-02T04:24:13.671Z,30.27
2019-05-02T04:26:52.062Z,29.35
2019-05-02T04:29:11.199Z,29.60
2019-05-02T04:31:42.786Z,29.45
2019-05-02T04:34:15.517Z,29.50
2019-05-02T04:36:46.419Z,28.80
2019-05-02T04:39:20.448Z,29.10
2019-05-02T04:41:48.613Z,28.60
2019-05-02T04:44:18.916Z,27.83
2019-05-02T04:46:49.025Z,29.90
2019-05-02T04:49:20.077Z,28.70
2019-05-02T04:52:00.149Z,28.40
2019-05-02T04:54:25.814Z,28.50
2019-05-02T04:56:55.122Z,29.90
2019-05-02T04:59:23.691Z,28.98
2019-05-02T05:01:57.563Z,30.25
2019-05-02T05:04:24.478Z,30.20
2019-05-02T05:06:58.123Z,31.77
2019-05-02T05:09:27.730Z,30.50
2019-05-02T05:11:59.028Z,30.60
2019-05-02T05:14:33.248Z,29.80
2019-05-02T05:16:58.999Z,30.40
2019-05-02T05:19:32.798Z,30.25
2019-05-02T05:22:04.750Z,31.80
2019-05-02T05:24:38.481Z,31.97
2019-05-02T05:27:13.120Z,31.50
2019-05-02T05:29:39.783Z,31.67
2019-05-02T05:32:10.367Z,31.62
2019-05-02T05:34:39.955Z,33.30
2019-05-02T05:37:13.342Z,32.60
2019-05-02T05:39:43.182Z,33.10
2019-05-02T05:42:11.946Z,34.92
2019-05-02T05:44:41.470Z,34.08
2019-05-02T05:47:12.063Z,35.90
2019-05-02T05:49:42.224Z,37.13
2019-05-02T05:52:11.767Z,38.00
2019-05-02T05:54:42.079Z,38.30
2019-05-02T05:57:12.236Z,38.40
2019-05-02T05:59:42.914Z,40.83
2019-05-02T06:02:14.627Z,39.75
2019-05-02T06:04:43.696Z,40.43
2019-05-02T06:07:13.268Z,39.90
2019-05-02T06:09:43.062Z,41.70
2019-05-02T06:12:12.593Z,42.90
2019-05-02T06:14:42.122Z,41.00
2019-05-02T06:17:11.645Z,41.40
2019-05-02T06:19:41.186Z,42.20
2019-05-02T06:22:10.723Z,42.47
2019-05-02T06:24:40.249Z,41.80
2019-05-02T06:27:09.781Z,42.90
2019-05-02T06:29:39.320Z,42.60
2019-05-02T06:32:08.874Z,42.50
2019-05-02T06:34:46.007Z,40.35
2019-05-02T06:37:13.606Z,41.00
2019-05-02T06:39:40.906Z,42.13
2019-05-02T06:42:10.438Z,41.00
2019-05-02T06:44:39.981Z,40.93
2019-05-02T06:47:09.495Z,42.80
2019-05-02T06:49:39.057Z,40.52
2019-05-02T06:52:08.582Z,41.37
2019-05-02T06:54:38.120Z,41.83
2019-05-02T06:57:07.726Z,41.50
2019-05-02T06:59:37.266Z,40.17
2019-05-02T07:02:06.870Z,39.10
2019-05-02T07:04:36.408Z,39.25
2019-05-02T07:07:06.302Z,38.90
2019-05-02T07:09:41.084Z,38.58
2019-05-02T07:12:09.841Z,39.30
2019-05-02T07:14:40.702Z,39.10
2019-05-02T07:17:32.102Z,39.38
2019-05-02T07:20:03.938Z,40.03
2019-05-02T07:22:33.242Z,40.00
2019-05-02T07:25:07.024Z,40.33
2019-05-02T07:27:35.851Z,39.00
2019-05-02T07:30:06.203Z,39.95
2019-05-02T07:32:35.960Z,39.27
2019-05-02T07:35:05.873Z,37.73
2019-05-02T07:37:35.405Z,37.20
2019-05-02T07:40:05.964Z,40.05
2019-05-02T07:42:36.826Z,40.50
2019-05-02T07:45:09.383Z,39.13
2019-05-02T07:47:40.438Z,39.58
2019-05-02T07:50:10.423Z,40.30
2019-05-02T07:52:41.448Z,39.00
2019-05-02T07:55:11.476Z,37.35
2019-05-02T07:57:41.056Z,37.50
2019-05-02T08:00:13.312Z,40.20
2019-05-02T08:02:42.923Z,38.97
2019-05-02T08:05:15.790Z,39.00
2019-05-02T08:07:44.084Z,38.40
2019-05-02T08:10:16.314Z,37.65
2019-05-02T08:12:45.594Z,39.00
2019-05-02T08:15:15.401Z,37.53
2019-05-02T08:17:53.251Z,37.80
2019-05-02T08:20:19.216Z,39.03
2019-05-02T08:22:49.000Z,39.20
2019-05-02T08:25:19.043Z,38.23
2019-05-02T08:27:57.410Z,39.03
2019-05-02T08:30:30.506Z,37.50
2019-05-02T08:33:00.048Z,38.70
2019-05-02T08:35:29.606Z,39.03
2019-05-02T08:37:59.144Z,38.13
2019-05-02T08:40:29.300Z,37.25
2019-05-02T08:43:03.392Z,37.80
2019-05-02T08:45:33.036Z,35.43
2019-05-02T08:48:05.233Z,38.37
2019-05-02T08:50:33.821Z,36.73
2019-05-02T08:53:03.317Z,36.05
2019-05-02T08:55:32.856Z,35.60
2019-05-02T08:58:06.581Z,35.03
2019-05-02T09:00:37.472Z,36.58
2019-05-02T09:03:04.909Z,36.43
2019-05-02T09:05:37.033Z,35.60
2019-05-02T09:08:09.244Z,35.23
2019-05-02T09:10:41.609Z,34.50
2019-05-02T09:13:08.133Z,36.60
2019-05-02T09:15:40.198Z,31.07
2019-05-02T09:18:08.954Z,36.85
2019-05-02T09:20:39.468Z,39.53
2019-05-02T09:23:08.978Z,39.18
2019-05-02T09:25:38.520Z,39.27
2019-05-02T09:28:08.035Z,38.37
2019-05-02T09:30:37.564Z,38.83
2019-05-02T09:33:07.062Z,40.75
2019-05-02T09:35:36.588Z,38.48
2019-05-02T09:38:06.119Z,39.80
2019-05-02T09:40:35.646Z,38.90
2019-05-02T09:43:05.234Z,38.83
2019-05-02T09:45:37.304Z,38.90
2019-05-02T09:48:08.070Z,38.23
2019-05-02T09:50:38.510Z,37.95
2019-05-02T09:53:13.273Z,38.58
2019-05-02T09:55:42.356Z,37.78
2019-05-02T09:58:19.461Z,38.10
2019-05-02T10:00:47.267Z,37.80
2019-05-02T10:03:17.441Z,36.35
2019-05-02T10:05:48.198Z,35.70
2019-05-02T10:08:17.695Z,36.20
2019-05-02T10:10:47.355Z,36.55
2019-05-02T10:13:17.100Z,35.35
2019-05-02T10:15:47.025Z,36.33
2019-05-02T10:18:19.542Z,36.00
2019-05-02T10:20:47.829Z,35.80
2019-05-02T10:23:20.714Z,35.38
2019-05-02T10:25:49.536Z,37.50
2019-05-02T10:28:19.135Z,36.27
2019-05-02T10:30:52.542Z,35.92
2019-05-02T10:33:19.871Z,36.70
2019-05-02T10:35:52.523Z,35.17
2019-05-02T10:38:22.942Z,35.20
2019-05-02T10:40:54.157Z,36.30
2019-05-02T10:43:23.854Z,37.03
2019-05-02T10:45:58.831Z,35.92
2019-05-02T10:48:29.013Z,36.43
2019-05-02T10:51:17.880Z,36.95
2019-05-02T10:53:52.654Z,34.38
2019-05-02T10:56:18.636Z,35.45
2019-05-02T10:58:48.157Z,36.17
2019-05-02T11:01:19.396Z,35.17
2019-05-02T11:03:51.551Z,35.33
2019-05-02T11:06:22.265Z,34.55
2019-05-02T11:08:52.624Z,34.63
2019-05-02T11:11:22.742Z,35.35
2019-05-02T11:14:05.915Z,35.60
2019-05-02T11:16:46.149Z,35.90
2019-05-02T11:19:23.749Z,33.83
2019-05-02T11:21:58.658Z,37.30
2019-05-02T11:24:24.468Z,35.55
2019-05-02T11:26:54.167Z,36.30
2019-05-02T11:29:23.777Z,37.10
2019-05-02T11:31:53.337Z,36.00
2019-05-02T11:34:22.940Z,37.75
2019-05-02T11:36:52.815Z,38.63
2019-05-02T11:39:32.524Z,39.35
2019-05-02T11:41:53.751Z,36.03
2019-05-02T11:44:23.271Z,35.63
2019-05-02T11:46:52.822Z,36.20
2019-05-02T11:49:22.881Z,37.48
2019-05-02T11:51:56.868Z,35.85
2019-05-02T11:54:23.730Z,37.20
2019-05-02T11:56:53.751Z,37.58
2019-05-02T11:59:28.150Z,36.48
2019-05-02T12:02:09.524Z,36.83
2019-05-02T12:04:41.797Z,40.55
2019-05-02T12:07:12.825Z,35.68
2019-05-02T12:09:44.079Z,38.40
2019-05-02T12:12:15.682Z,37.25
2019-05-02T12:14:45.311Z,36.95
2019-05-02T12:17:14.854Z,39.63
2019-05-02T12:19:44.464Z,39.30
2019-05-02T12:22:16.961Z,41.30
2019-05-02T12:24:46.246Z,37.33
2019-05-02T12:27:15.853Z,39.23
2019-05-02T12:29:50.156Z,38.28
2019-05-02T12:32:18.350Z,38.65
2019-05-02T12:34:47.877Z,37.50
2019-05-02T12:37:17.737Z,38.17
2019-05-02T12:39:47.306Z,38.53
2019-05-02T12:42:17.516Z,36.45
2019-05-02T12:44:48.102Z,38.20
2019-05-02T12:47:17.619Z,38.50
2019-05-02T12:49:47.140Z,39.27
2019-05-02T12:52:16.688Z,38.75
2019-05-02T12:54:46.308Z,36.98
2019-05-02T12:57:15.905Z,38.13
2019-05-02T12:59:45.455Z,37.50
2019-05-02T13:02:23.026Z,36.35
2019-05-02T13:04:52.806Z,36.93
2019-05-02T13:07:23.327Z,35.73
2019-05-02T13:09:54.040Z,35.03
2019-05-02T13:12:28.631Z,35.48
2019-05-02T13:14:58.210Z,35.75
2019-05-02T13:17:29.470Z,34.27
2019-05-02T13:20:03.109Z,36.00
2019-05-02T13:22:49.288Z,35.15
2019-05-02T13:25:22.493Z,35.20
2019-05-02T13:27:52.846Z,35.73
2019-05-02T13:30:46.582Z,35.70
2019-05-02T13:33:27.336Z,36.70
2019-05-02T13:35:57.442Z,38.50
2019-05-02T13:38:27.028Z,38.92
2019-05-02T13:40:57.036Z,37.30
2019-05-02T13:43:32.374Z,40.30
2019-05-02T13:46:22.200Z,41.48
2019-05-02T13:48:52.494Z,42.05
2019-05-02T13:51:24.189Z,41.18
2019-05-02T13:53:58.869Z,41.95
2019-05-02T13:56:47.547Z,41.77
2019-05-02T13:59:17.384Z,43.05
2019-05-02T14:01:51.915Z,44.47
2019-05-02T14:04:23.226Z,47.83
2019-05-02T14:06:52.955Z,50.17
2019-05-02T14:09:34.455Z,51.97
2019-05-02T14:12:08.406Z,49.97
2019-05-02T14:14:38.384Z,52.87
2019-05-02T14:17:07.921Z,53.13
2019-05-02T14:19:37.531Z,50.10
2019-05-02T14:22:07.155Z,51.10
2019-05-02T14:24:36.706Z,50.47
2019-05-02T14:27:12.855Z,51.17
2019-05-02T14:29:38.834Z,48.60
2019-05-02T14:32:20.386Z,50.40
2019-05-02T14:34:52.881Z,49.38
2019-05-02T14:37:22.775Z,46.87
2019-05-02T14:39:55.571Z,47.60
2019-05-02T14:42:26.268Z,49.53
2019-05-02T14:45:08.435Z,50.13
2019-05-02T14:47:27.339Z,48.02
2019-05-02T14:50:02.204Z,45.90
2019-05-02T14:52:30.253Z,44.33
2019-05-02T14:55:05.932Z,45.63
2019-05-02T14:57:35.810Z,41.73
2019-05-02T15:00:05.911Z,41.50
2019-05-02T15:02:48.966Z,42.95
2019-05-02T15:05:19.353Z,42.10
2019-05-02T15:07:46.820Z,40.90
2019-05-02T15:10:16.622Z,41.70
2019-05-02T15:12:46.206Z,41.48
2019-05-02T15:15:17.706Z,44.75
2019-05-02T15:17:47.317Z,41.07
2019-05-02T15:20:17.137Z,41.23
2019-05-02T15:22:46.781Z,41.87
2019-05-02T15:25:17.947Z,40.73
2019-05-02T15:27:50.072Z,41.48
2019-05-02T15:30:19.078Z,40.78
2019-05-02T15:33:03.101Z,40.92
2019-05-02T15:35:37.714Z,40.70
2019-05-02T15:38:07.411Z,41.30
2019-05-02T15:40:46.948Z,42.70
2019-05-02T15:43:09.678Z,43.35
2019-05-02T15:45:41.954Z,44.75
2019-05-02T15:48:16.083Z,43.47
2019-05-02T15:50:50.105Z,45.03
2019-05-02T15:53:22.305Z,45.27
2019-05-02T15:55:52.649Z,44.93
2019-05-02T15:58:23.710Z,44.85
2019-05-02T16:01:05.539Z,46.75
2019-05-02T16:03:46.717Z,47.03
2019-05-02T16:06:21.146Z,46.45
2019-05-02T16:08:47.781Z,46.83
2019-05-02T16:11:18.108Z,46.35
2019-05-02T16:13:52.489Z,48.78
2019-05-02T16:16:21.913Z,46.05
2019-05-02T16:18:53.060Z,45.90
2019-05-02T16:21:44.955Z,47.50
2019-05-02T16:24:22.937Z,46.55
2019-05-02T16:26:56.585Z,45.57
2019-05-02T16:29:28.377Z,45.58
2019-05-02T16:32:07.595Z,44.30
2019-05-02T16:34:52.083Z,47.40
2019-05-02T16:37:22.960Z,48.40
2019-05-02T16:39:52.633Z,47.70
2019-05-02T16:42:22.758Z,48.20
2019-05-02T16:44:54.689Z,46.95
2019-05-02T16:47:23.896Z,47.10
2019-05-02T16:49:56.459Z,45.57
2019-05-02T16:52:25.023Z,47.48
2019-05-02T16:54:54.696Z,46.40
2019-05-02T16:57:24.345Z,48.15
2019-05-02T17:00:01.309Z,46.20
2019-05-02T17:02:25.421Z,47.23
2019-05-02T17:04:55.043Z,48.97
2019-05-02T17:07:34.870Z,46.80
2019-05-02T17:10:23.439Z,47.27
2019-05-02T17:12:57.735Z,48.00
2019-05-02T17:15:31.412Z,48.63
2019-05-02T17:17:58.592Z,48.83
2019-05-02T17:20:28.368Z,48.03
2019-05-02T17:23:05.168Z,48.23
2019-05-02T17:25:32.107Z,48.00
2019-05-02T17:28:07.011Z,50.27
2019-05-02T17:30:38.664Z,49.17
2019-05-02T17:33:07.306Z,51.40
2019-05-02T17:35:35.920Z,50.52
2019-05-02T17:38:05.651Z,51.93
2019-05-02T17:40:35.264Z,50.70
2019-05-02T17:43:06.877Z,48.73
2019-05-02T17:45:38.495Z,49.53
2019-05-02T17:48:15.892Z,49.45
2019-05-02T17:51:12.246Z,48.95
2019-05-02T17:53:49.314Z,48.63
2019-05-02T17:56:20.286Z,47.60
2019-05-02T17:58:47.425Z,47.65
2019-05-02T18:01:21.759Z,47.77
2019-05-02T18:03:52.492Z,48.45
2019-05-02T18:06:32.422Z,48.58
2019-05-02T18:08:55.367Z,47.85
2019-05-02T18:11:29.669Z,48.73
2019-05-02T18:13:56.500Z,47.47
2019-05-02T18:16:26.100Z,46.48
2019-05-02T18:18:55.795Z,45.70
2019-05-02T18:21:28.636Z,47.65
2019-05-02T18:23:57.103Z,45.20
2019-05-02T18:26:28.058Z,44.63
2019-05-02T18:29:02.768Z,45.10
2019-05-02T18:31:29.103Z,43.23
2019-05-02T18:33:58.759Z,42.60
2019-05-02T18:36:28.400Z,41.57
2019-05-02T18:39:00.508Z,43.33
2019-05-02T18:41:29.536Z,40.93
2019-05-02T18:43:59.117Z,36.00
2019-05-02T18:46:28.829Z,25.60
2019-05-02T18:48:58.892Z,17.80
2019-05-02T18:51:29.331Z,16.97
2019-05-02T18:54:04.488Z,14.47
2019-05-02T18:56:41.138Z,14.60
2019-05-02T18:59:05.730Z,13.72
2019-05-02T19:01:35.379Z,14.40
2019-05-02T19:04:05.079Z,14.13
2019-05-02T19:06:36.211Z,13.03
2019-05-02T19:09:09.086Z,12.18
2019-05-02T19:11:38.845Z,13.30
2019-05-02T19:14:11.739Z,12.03
2019-05-02T19:16:42.605Z,12.65
2019-05-02T19:19:12.635Z,12.30
2019-05-02T19:21:42.290Z,11.90
2019-05-02T19:24:13.149Z,12.90
2019-05-02T19:26:49.200Z,12.15
2019-05-02T19:29:28.035Z,12.63
2019-05-02T19:31:58.169Z,13.00
2019-05-02T19:34:27.799Z,12.05
2019-05-02T19:37:02.544Z,12.27
2019-05-02T19:39:32.071Z,12.78
2019-05-02T19:42:01.921Z,12.50
2019-05-02T19:44:33.970Z,11.77
2019-05-02T19:47:03.124Z,12.15
2019-05-02T19:49:33.025Z,12.20
2019-05-02T19:52:02.713Z,12.47
2019-05-02T19:54:39.538Z,11.30
2019-05-02T19:57:03.666Z,10.77
2019-05-02T19:59:33.235Z,10.63
2019-05-02T20:02:06.002Z,10.50
2019-05-02T20:04:37.817Z,11.10
2019-05-02T20:07:05.550Z,11.05
2019-05-02T20:09:38.101Z,11.30
2019-05-02T20:12:10.553Z,9.90
2019-05-02T20:14:46.053Z,9.55
2019-05-02T20:17:15.051Z,9.67
2019-05-02T20:19:44.353Z,9.00
2019-05-02T20:22:16.293Z,8.55
2019-05-02T20:25:00.345Z,8.40
2019-05-02T20:27:24.182Z,8.40
2019-05-02T20:29:53.885Z,8.25
2019-05-02T20:32:23.505Z,7.00
2019-05-02T20:34:53.106Z,5.62
2019-05-02T20:37:22.676Z,5.80
2019-05-02T20:39:52.285Z,6.00
2019-05-02T20:42:21.811Z,5.27
2019-05-02T20:44:52.803Z,5.30
2019-05-02T20:47:24.777Z,5.10
2019-05-02T20:49:54.469Z,6.03
2019-05-02T20:52:24.087Z,6.10
2019-05-02T20:54:53.849Z,5.62
2019-05-02T20:57:23.407Z,6.00
2019-05-02T20:59:52.940Z,5.35
2019-05-02T21:02:22.585Z,6.43
2019-05-02T21:04:52.386Z,6.40
2019-05-02T21:07:33.319Z,6.00
2019-05-02T21:10:21.720Z,5.90
2019-05-02T21:12:52.617Z,6.17
2019-05-02T21:15:22.253Z,5.70
2019-05-02T21:17:51.878Z,6.00
2019-05-02T21:20:21.926Z,5.20
2019-05-02T21:22:52.917Z,5.57
2019-05-02T21:25:23.144Z,5.63
2019-05-02T21:27:53.875Z,5.80
2019-05-02T21:30:27.334Z,5.60
2019-05-02T21:32:56.993Z,5.60
2019-05-02T21:35:26.608Z,6.45
2019-05-02T21:37:57.100Z,6.50
2019-05-02T21:40:26.640Z,7.63
2019-05-02T21:42:56.183Z,11.40
2019-05-02T21:45:25.814Z,11.50
2019-05-02T21:47:55.372Z,9.85
2019-05-02T21:50:42.787Z,8.47
2019-05-02T21:53:49.152Z,7.65
2019-05-02T21:56:21.864Z,7.63
2019-05-02T21:59:12.117Z,8.03
2019-05-02T22:01:47.444Z,6.90
2019-05-02T22:04:17.054Z,6.85
2019-05-02T22:06:46.744Z,6.67
2019-05-02T22:09:16.371Z,6.42
2019-05-02T22:11:45.928Z,6.60
2019-05-02T22:14:15.464Z,6.20
2019-05-02T22:16:45.042Z,6.30
2019-05-02T22:19:14.618Z,6.03
2019-05-02T22:21:44.285Z,6.50
2019-05-02T22:24:14.511Z,6.10
2019-05-02T22:26:45.634Z,5.80
2019-05-02T22:29:15.174Z,5.83
2019-05-02T22:31:44.769Z,5.47
2019-05-02T22:34:14.296Z,5.60
2019-05-02T22:36:43.919Z,5.57
2019-05-02T22:39:35.305Z,5.23
2019-05-02T22:42:04.904Z,5.60
2019-05-02T22:44:34.407Z,5.00
2019-05-02T22:47:03.922Z,5.40
2019-05-02T22:49:33.544Z,5.85
2019-05-02T22:52:03.152Z,5.37
2019-05-02T22:54:33.926Z,5.15
2019-05-02T22:57:03.659Z,5.42
2019-05-02T22:59:33.217Z,5.20
2019-05-02T23:02:03.828Z,5.40
2019-05-02T23:04:33.416Z,5.40
2019-05-02T23:07:02.969Z,5.15
2019-05-02T23:09:32.596Z,5.30
2019-05-02T23:12:02.888Z,4.80
2019-05-02T23:14:32.773Z,4.95
2019-05-02T23:17:03.357Z,5.35
2019-05-02T23:19:32.941Z,5.30
2019-05-02T23:22:02.481Z,5.13
2019-05-02T23:24:47.167Z,5.10
2019-05-02T23:27:32.084Z,5.90
2019-05-02T23:30:02.851Z,6.20
2019-05-02T23:32:33.458Z,6.12
2019-05-02T23:35:02.996Z,5.60
2019-05-02T23:37:32.738Z,6.12
2019-05-02T23:40:02.279Z,6.30
2019-05-02T23:42:31.810Z,5.70
2019-05-02T23:45:02.793Z,6.30
2019-05-02T23:47:33.006Z,6.10
2019-05-02T23:50:02.933Z,6.30
2019-05-02T23:52:32.878Z,5.70
2019-05-02T23:55:03.020Z,6.47
2019-05-02T23:57:33.595Z,6.53
